Essen Mülheim Airport

EDLE · North Rhine-Westphalia, 德国

罗盘
风向 的 风向 020° Essen Mulheim Airport 6/24
风: 7 kt, 3 beaufort

5 kt

5 kt
改变
0 1.000 2.000 3.000 4.000 5.000
OVC 400 ft
METAR EDDL 010320Z AUTO 02007KT 5000 BR OVC004 06/05 Q1026 TEMPO BKN006

METAR Essen Mulheim Airport - EDLE/ESS

Essen Mulheim Airport是,德国中的小机场。 该机场有一条跑道: 6/24. 该领域的国际民航组织标志是EDLE 它的国际航空运输协会代码是ESS.

这份报告是针对2022年12月1日 04:20, 当地时间在Düsseldorf Airport进行的。

机场观察

风向为020°,速度为7 kt。

可见度为5 km。

有乌云密布在400 ft的高度。 破损或更高的上限为400 ft。

当前天气为薄雾。 温度为6 °C,阵风为2 °C。 露点为5 °C,相对湿度为93%。 海平面上的气压为1026 hPa (QNH)。

发展趋势

  • 暂时的

    可变方向的风很小或没有。 碎云在600 ft的高度.

白天

今天,太阳从08:15升起,在16:27降落。 这适用于Essen Mulheim Airport,世界夏令时可能有所不同。 当地时间与世界标准时间之间的时差为+1 小时。 当前,没有夏令时有效。

公司介绍

我们没有关于这个机场的公司信息。

体会

到Vliegles.nl去找飞行课程,跳伞和其他飞行体验。 浏览页面,了解Essen Mulheim Airport附近所有可用的活动。 你也可以使用搜索功能来寻找你所在地附近的特定飞行课程、跳伞或其他飞行体验。

跑道

Id 标题 侧风 逆风 侧风 %
6/24 066°-246° 5 kt 5 kt 72 %

逆风成分最大的方向会被突出显示,并用于横风计算。 这并不一定意味着这个方向在使用。

乌云

400 ft OVC 乌云密布
600 ft BKN 暂时的 碎云

温度 & 天气

天气 薄雾
温度 6 °C
露点 5 °C
相对湿度 93%
风寒 2 °C
Kp-index 1 (0-9)

白天

日出
08:15 (3:39)
中午
12:21
日落
16:28

小工具

你想在你的网站上有一个关于Essen Mulheim Airport的当前航空天气(METAR)的小部件吗?

显示HTML代码

我们和第三方通过cookies跟踪您在我们网站上的互联网行为。如果你继续,我们认为你同意我们的饼干政策